createdAt,value
2019-03-29T00:00:39.705Z,78.40
2019-03-29T00:03:09.213Z,78.93
2019-03-29T00:05:38.480Z,78.93
2019-03-29T00:08:09.161Z,79.05
2019-03-29T00:10:38.466Z,79.06
2019-03-29T00:13:07.618Z,79.05
2019-03-29T00:15:36.966Z,78.38
2019-03-29T00:18:06.233Z,78.56
2019-03-29T00:20:35.370Z,78.56
2019-03-29T00:23:04.524Z,78.73
2019-03-29T00:25:33.682Z,78.06
2019-03-29T00:28:02.920Z,77.56
2019-03-29T00:30:32.068Z,78.03
2019-03-29T00:33:01.285Z,78.79
2019-03-29T00:35:30.321Z,79.14
2019-03-29T00:37:59.372Z,79.64
2019-03-29T00:40:28.438Z,79.77
2019-03-29T00:42:57.691Z,79.35
2019-03-29T00:45:26.723Z,79.65
2019-03-29T00:47:56.115Z,79.18
2019-03-29T00:50:25.349Z,79.31
2019-03-29T00:52:54.507Z,79.80
2019-03-29T00:55:23.815Z,80.37
2019-03-29T00:57:52.872Z,79.48
2019-03-29T01:00:22.252Z,79.54
2019-03-29T01:02:51.317Z,79.67
2019-03-29T01:05:20.981Z,79.65
2019-03-29T01:07:50.306Z,80.08
2019-03-29T01:10:19.544Z,79.95
2019-03-29T01:12:48.595Z,80.78
2019-03-29T01:15:17.861Z,80.51
2019-03-29T01:17:46.935Z,80.74
2019-03-29T01:20:16.175Z,81.12
2019-03-29T01:22:45.325Z,80.16
2019-03-29T01:25:14.486Z,79.89
2019-03-29T01:27:43.673Z,79.46
2019-03-29T01:30:13.140Z,78.80
2019-03-29T01:32:42.228Z,78.58
2019-03-29T01:35:11.578Z,79.18
2019-03-29T01:37:40.618Z,78.43
2019-03-29T01:40:10.176Z,77.25
2019-03-29T01:42:39.236Z,77.51
2019-03-29T01:45:08.969Z,78.30
2019-03-29T01:47:38.148Z,77.76
2019-03-29T01:50:08.170Z,78.15
2019-03-29T01:52:37.484Z,78.59
2019-03-29T01:55:07.151Z,77.93
2019-03-29T01:57:36.198Z,77.20
2019-03-29T02:00:06.157Z,77.86
2019-03-29T02:02:35.324Z,77.97
2019-03-29T02:05:05.382Z,78.34
2019-03-29T02:07:34.411Z,78.92
2019-03-29T02:10:05.733Z,79.43
2019-03-29T02:12:34.804Z,79.92
2019-03-29T02:15:05.461Z,78.72
2019-03-29T02:17:34.722Z,79.91
2019-03-29T02:20:05.280Z,80.01
2019-03-29T02:22:34.448Z,80.19
2019-03-29T02:25:04.437Z,80.34
2019-03-29T02:27:33.487Z,80.34
2019-03-29T02:30:04.205Z,80.61
2019-03-29T02:32:33.802Z,81.05
2019-03-29T02:35:03.129Z,80.38
2019-03-29T02:37:32.186Z,79.08
2019-03-29T02:40:01.234Z,79.22
2019-03-29T02:42:30.291Z,78.85
2019-03-29T02:44:59.344Z,80.51
2019-03-29T02:47:28.396Z,80.71
2019-03-29T02:49:57.600Z,82.07
2019-03-29T02:52:26.604Z,81.54
2019-03-29T02:54:55.760Z,80.12
2019-03-29T02:57:25.017Z,81.73
2019-03-29T02:59:54.168Z,80.68
2019-03-29T03:02:26.394Z,80.66
2019-03-29T03:04:54.290Z,80.20
2019-03-29T03:07:23.433Z,79.96
2019-03-29T03:09:52.579Z,79.99
2019-03-29T03:12:21.692Z,79.83
2019-03-29T03:14:50.729Z,80.57
2019-03-29T03:17:20.085Z,81.65
2019-03-29T03:19:49.147Z,82.15
2019-03-29T03:22:18.283Z,81.47
2019-03-29T03:24:47.335Z,82.11
2019-03-29T03:27:16.393Z,81.81
2019-03-29T03:29:47.955Z,81.65
2019-03-29T03:32:16.677Z,80.89
2019-03-29T03:34:45.824Z,79.71
2019-03-29T03:37:14.933Z,80.26
2019-03-29T03:39:44.010Z,79.80
2019-03-29T03:42:13.048Z,79.33
2019-03-29T03:44:42.077Z,79.39
2019-03-29T03:47:11.231Z,80.77
2019-03-29T03:49:40.371Z,82.29
2019-03-29T03:52:09.614Z,80.78
2019-03-29T03:54:39.989Z,81.96
2019-03-29T03:57:10.311Z,82.03
2019-03-29T03:59:39.483Z,83.19
2019-03-29T04:02:08.617Z,81.52
2019-03-29T04:04:38.131Z,82.95
2019-03-29T04:07:07.309Z,83.80
2019-03-29T04:09:49.129Z,84.01
2019-03-29T04:12:07.361Z,84.36
2019-03-29T04:14:36.408Z,84.56
2019-03-29T04:17:05.562Z,85.02
2019-03-29T04:19:34.611Z,86.14
2019-03-29T04:22:03.725Z,84.94
2019-03-29T04:24:32.711Z,84.45
2019-03-29T04:27:01.787Z,82.86
2019-03-29T04:29:30.821Z,83.97
2019-03-29T04:31:59.871Z,84.39
2019-03-29T04:34:28.942Z,85.45
2019-03-29T04:36:58.040Z,87.11
2019-03-29T04:39:27.066Z,82.38
2019-03-29T04:41:56.140Z,83.30
2019-03-29T04:44:25.176Z,83.48
2019-03-29T04:46:54.292Z,84.67
2019-03-29T04:49:23.289Z,85.19
2019-03-29T04:51:52.431Z,84.97
2019-03-29T04:54:21.500Z,85.27
2019-03-29T04:56:50.672Z,85.11
2019-03-29T04:59:19.816Z,85.19
2019-03-29T05:01:48.892Z,85.48
2019-03-29T05:04:18.207Z,86.07
2019-03-29T05:06:47.361Z,86.83
2019-03-29T05:09:16.515Z,85.47
2019-03-29T05:11:45.604Z,85.24
2019-03-29T05:14:14.646Z,86.33
2019-03-29T05:16:43.693Z,85.99
2019-03-29T05:19:12.755Z,85.74
2019-03-29T05:21:41.907Z,86.58
2019-03-29T05:24:10.946Z,86.96
2019-03-29T05:26:40.284Z,85.82
2019-03-29T05:29:09.315Z,86.15
2019-03-29T05:31:38.358Z,85.88
2019-03-29T05:34:07.450Z,85.29
2019-03-29T05:36:36.609Z,85.89
2019-03-29T05:39:06.027Z,86.46
2019-03-29T05:41:35.216Z,86.56
2019-03-29T05:44:04.657Z,86.47
2019-03-29T05:46:33.721Z,86.51
2019-03-29T05:49:02.986Z,86.15
2019-03-29T05:51:32.169Z,86.16
2019-03-29T05:54:01.318Z,85.66
2019-03-29T05:56:30.505Z,86.40
2019-03-29T05:58:59.577Z,86.70
2019-03-29T06:01:28.734Z,85.84
2019-03-29T06:03:57.790Z,85.58
2019-03-29T06:06:26.833Z,85.33
2019-03-29T06:08:55.897Z,85.62
2019-03-29T06:11:25.302Z,83.74
2019-03-29T06:13:54.455Z,83.84
2019-03-29T06:16:23.621Z,84.52
2019-03-29T06:18:52.696Z,84.98
2019-03-29T06:21:21.790Z,85.39
2019-03-29T06:23:50.825Z,82.46
2019-03-29T06:26:20.210Z,83.46
2019-03-29T06:28:49.448Z,83.34
2019-03-29T06:31:18.596Z,82.68
2019-03-29T06:33:47.761Z,82.52
2019-03-29T06:36:18.476Z,81.21
2019-03-29T06:38:49.814Z,79.14
2019-03-29T06:41:18.895Z,77.57
2019-03-29T06:43:48.083Z,77.62
2019-03-29T06:46:17.146Z,77.40
2019-03-29T06:48:46.347Z,76.74
2019-03-29T06:51:15.396Z,76.65
2019-03-29T06:53:44.566Z,74.95
2019-03-29T06:56:13.702Z,74.59
2019-03-29T06:58:42.705Z,75.13
2019-03-29T07:01:11.863Z,72.77
2019-03-29T07:03:40.928Z,72.30
2019-03-29T07:06:10.139Z,70.48
2019-03-29T07:08:39.291Z,69.06
2019-03-29T07:11:17.163Z,68.63
2019-03-29T07:13:39.500Z,66.13
2019-03-29T07:16:08.555Z,61.98
2019-03-29T07:18:37.614Z,56.92
2019-03-29T07:21:15.692Z,51.74
2019-03-29T07:23:37.908Z,54.73
2019-03-29T07:26:07.158Z,50.46
2019-03-29T07:28:36.222Z,43.61
2019-03-29T07:31:05.401Z,43.23
2019-03-29T07:33:34.452Z,44.94
2019-03-29T07:36:03.704Z,40.63
2019-03-29T07:38:32.971Z,47.95
2019-03-29T07:41:02.161Z,48.36
2019-03-29T07:43:31.393Z,45.34
2019-03-29T07:46:00.457Z,45.90
2019-03-29T07:48:29.510Z,39.23
2019-03-29T07:50:58.555Z,42.90
2019-03-29T07:53:27.620Z,41.50
2019-03-29T07:55:56.758Z,38.83
2019-03-29T07:58:25.915Z,44.94
2019-03-29T08:00:54.981Z,39.77
2019-03-29T08:03:24.255Z,41.83
2019-03-29T08:05:53.288Z,45.97
2019-03-29T08:08:25.018Z,39.10
2019-03-29T08:10:54.075Z,36.00
2019-03-29T08:13:23.641Z,35.30
2019-03-29T08:15:52.732Z,35.40
2019-03-29T08:18:21.745Z,40.10
2019-03-29T08:20:50.840Z,41.04
2019-03-29T08:23:19.888Z,41.48
2019-03-29T08:25:49.044Z,39.70
2019-03-29T08:28:18.220Z,38.55
2019-03-29T08:30:47.280Z,41.37
2019-03-29T08:33:16.390Z,38.44
2019-03-29T08:35:45.466Z,33.35
2019-03-29T08:38:14.561Z,32.15
2019-03-29T08:40:45.347Z,29.93
2019-03-29T08:43:14.680Z,30.10
2019-03-29T08:45:43.717Z,32.42
2019-03-29T08:48:12.971Z,36.94
2019-03-29T08:50:42.153Z,33.52
2019-03-29T08:53:11.406Z,34.80
2019-03-29T08:55:46.095Z,30.03
2019-03-29T08:58:11.947Z,32.16
2019-03-29T09:00:41.178Z,29.37
2019-03-29T09:03:10.331Z,29.05
2019-03-29T09:05:40.300Z,29.33
2019-03-29T09:08:09.548Z,35.32
2019-03-29T09:10:38.681Z,32.41
2019-03-29T09:13:07.750Z,38.93
2019-03-29T09:15:36.886Z,36.97
2019-03-29T09:18:06.071Z,36.79
2019-03-29T09:20:35.139Z,32.23
2019-03-29T09:23:04.284Z,28.69
2019-03-29T09:25:33.445Z,31.32
2019-03-29T09:28:02.733Z,37.82
2019-03-29T09:30:31.771Z,29.97
2019-03-29T09:33:00.835Z,30.43
2019-03-29T09:35:30.092Z,31.12
2019-03-29T09:37:59.147Z,29.35
2019-03-29T09:40:28.288Z,33.66
2019-03-29T09:43:07.313Z,32.04
2019-03-29T09:45:28.699Z,31.02
2019-03-29T09:47:57.759Z,30.58
2019-03-29T09:50:26.994Z,27.64
2019-03-29T09:52:56.244Z,28.05
2019-03-29T09:55:25.301Z,29.75
2019-03-29T09:57:54.353Z,30.51
2019-03-29T10:00:23.887Z,30.10
2019-03-29T10:02:53.069Z,29.36
2019-03-29T10:05:22.228Z,29.36
2019-03-29T10:07:51.476Z,28.49
2019-03-29T10:10:20.551Z,31.35
2019-03-29T10:12:49.643Z,30.50
2019-03-29T10:15:18.815Z,31.42
2019-03-29T10:17:48.083Z,31.03
2019-03-29T10:20:17.252Z,25.85
2019-03-29T10:22:46.412Z,27.88
2019-03-29T10:25:19.493Z,32.29
2019-03-29T10:27:46.634Z,25.89
2019-03-29T10:30:39.815Z,30.25
2019-03-29T10:33:09.082Z,32.50
2019-03-29T10:35:50.755Z,31.98
2019-03-29T10:38:09.484Z,25.99
2019-03-29T10:40:38.779Z,25.01
2019-03-29T10:43:08.035Z,24.07
2019-03-29T10:45:40.316Z,24.79
2019-03-29T10:48:08.476Z,23.53
2019-03-29T10:50:37.752Z,24.37
2019-03-29T10:53:06.814Z,24.85
2019-03-29T10:55:36.136Z,31.59
2019-03-29T10:58:05.281Z,30.61
2019-03-29T11:00:36.442Z,28.69
2019-03-29T11:03:06.251Z,28.53
2019-03-29T11:05:35.692Z,27.39
2019-03-29T11:08:05.359Z,26.42
2019-03-29T11:10:35.368Z,30.67
2019-03-29T11:13:12.692Z,31.98
2019-03-29T11:15:35.818Z,30.13
2019-03-29T11:18:05.467Z,28.50
2019-03-29T11:20:34.694Z,29.93
2019-03-29T11:23:03.865Z,28.30
2019-03-29T11:25:33.208Z,27.86
2019-03-29T11:28:02.460Z,29.04
2019-03-29T11:30:42.065Z,25.96
2019-03-29T11:33:03.017Z,22.45
2019-03-29T11:35:32.299Z,26.21
2019-03-29T11:38:01.362Z,28.34
2019-03-29T11:40:30.512Z,28.92
2019-03-29T11:42:59.580Z,29.35
2019-03-29T11:45:29.026Z,28.41
2019-03-29T11:48:08.498Z,24.11
2019-03-29T11:50:29.378Z,24.81
2019-03-29T11:52:58.494Z,24.50
2019-03-29T11:55:27.759Z,27.18
2019-03-29T11:57:56.823Z,24.04
2019-03-29T12:00:33.724Z,27.48
2019-03-29T12:03:03.195Z,25.43
2019-03-29T12:05:35.975Z,27.56
2019-03-29T12:08:04.242Z,27.96
2019-03-29T12:10:33.713Z,26.97
2019-03-29T12:13:03.161Z,27.77
2019-03-29T12:15:32.419Z,28.51
2019-03-29T12:18:01.714Z,25.48
2019-03-29T12:20:30.855Z,28.05
2019-03-29T12:23:00.111Z,27.81
2019-03-29T12:25:29.281Z,24.52
2019-03-29T12:27:58.423Z,24.75
2019-03-29T12:30:31.953Z,31.24
2019-03-29T12:32:58.632Z,25.79
2019-03-29T12:35:27.887Z,28.28
2019-03-29T12:37:57.131Z,26.78
2019-03-29T12:40:26.408Z,29.52
2019-03-29T12:42:55.556Z,27.88
2019-03-29T12:45:24.708Z,29.29
2019-03-29T12:47:53.775Z,25.48
2019-03-29T12:50:22.835Z,28.07
2019-03-29T12:52:51.891Z,25.27
2019-03-29T12:55:20.965Z,27.71
2019-03-29T12:57:50.125Z,23.89
2019-03-29T13:00:19.400Z,30.22
2019-03-29T13:02:48.697Z,30.15
2019-03-29T13:05:17.847Z,24.47
2019-03-29T13:07:46.992Z,25.17
2019-03-29T13:10:16.352Z,23.58
2019-03-29T13:12:45.403Z,25.15
2019-03-29T13:15:14.707Z,23.48
2019-03-29T13:17:43.757Z,26.87
2019-03-29T13:20:13.107Z,29.98
2019-03-29T13:22:42.145Z,29.34
2019-03-29T13:25:12.147Z,28.77
2019-03-29T13:27:41.415Z,30.87
2019-03-29T13:30:11.061Z,28.95
2019-03-29T13:32:40.217Z,26.33
2019-03-29T13:35:09.525Z,29.52
2019-03-29T13:37:38.580Z,29.91
2019-03-29T13:40:08.720Z,27.98
2019-03-29T13:42:37.871Z,26.64
2019-03-29T13:45:08.510Z,26.75
2019-03-29T13:47:37.698Z,25.96
2019-03-29T13:50:08.287Z,25.71
2019-03-29T13:52:37.615Z,29.30
2019-03-29T13:55:07.089Z,27.50
2019-03-29T13:57:36.288Z,26.57
2019-03-29T14:00:09.021Z,30.21
2019-03-29T14:02:38.235Z,29.80
2019-03-29T14:05:08.738Z,30.47
2019-03-29T14:07:38.611Z,28.49
2019-03-29T14:10:08.437Z,28.04
2019-03-29T14:12:37.995Z,31.12
2019-03-29T14:15:09.094Z,29.90
2019-03-29T14:17:38.368Z,26.55
2019-03-29T14:20:08.339Z,26.09
2019-03-29T14:22:37.493Z,27.76
2019-03-29T14:25:07.211Z,29.97
2019-03-29T14:27:36.488Z,25.85
2019-03-29T14:30:06.837Z,28.55
2019-03-29T14:32:36.018Z,29.68
2019-03-29T14:35:07.245Z,25.50
2019-03-29T14:37:36.331Z,26.27
2019-03-29T14:40:06.346Z,29.61
2019-03-29T14:42:35.547Z,30.07
2019-03-29T14:45:05.426Z,27.82
2019-03-29T14:47:41.399Z,29.48
2019-03-29T14:50:07.261Z,27.99
2019-03-29T14:52:36.483Z,28.96
2019-03-29T14:55:06.143Z,29.97
2019-03-29T14:57:35.341Z,29.79
2019-03-29T15:00:07.694Z,29.23
2019-03-29T15:02:37.067Z,30.68
2019-03-29T15:05:07.610Z,27.46
2019-03-29T15:07:37.681Z,27.42
2019-03-29T15:10:12.526Z,28.74
2019-03-29T15:12:41.621Z,29.46
2019-03-29T15:15:10.928Z,32.88
2019-03-29T15:17:40.174Z,32.35
2019-03-29T15:20:09.840Z,33.31
2019-03-29T15:22:39.047Z,31.82
2019-03-29T15:25:08.305Z,32.13
2019-03-29T15:27:37.614Z,31.99
2019-03-29T15:30:07.122Z,32.30
2019-03-29T15:32:36.190Z,33.46
2019-03-29T15:35:06.397Z,35.47
2019-03-29T15:37:35.565Z,35.47
2019-03-29T15:40:05.783Z,36.28
2019-03-29T15:42:34.941Z,36.03
2019-03-29T15:45:04.670Z,36.82
2019-03-29T15:47:33.968Z,36.76
2019-03-29T15:50:03.341Z,36.74
2019-03-29T15:52:32.639Z,35.89
2019-03-29T15:55:01.796Z,36.60
2019-03-29T15:57:30.971Z,37.62
2019-03-29T16:00:00.143Z,39.08
2019-03-29T16:02:30.132Z,37.66
2019-03-29T16:04:59.328Z,38.96
2019-03-29T16:07:28.515Z,38.80
2019-03-29T16:09:57.764Z,38.54
2019-03-29T16:12:26.930Z,39.61
2019-03-29T16:14:56.289Z,39.50
2019-03-29T16:17:25.498Z,38.73
2019-03-29T16:19:54.547Z,39.49
2019-03-29T16:22:23.845Z,39.45
2019-03-29T16:24:53.163Z,39.69
2019-03-29T16:27:24.980Z,40.43
2019-03-29T16:29:53.329Z,40.67
2019-03-29T16:32:22.486Z,40.59
2019-03-29T16:34:51.727Z,40.91
2019-03-29T16:37:21.047Z,42.23
2019-03-29T16:39:50.226Z,42.20
2019-03-29T16:42:19.324Z,41.49
2019-03-29T16:44:48.436Z,41.38
2019-03-29T16:47:17.566Z,41.03
2019-03-29T16:49:46.713Z,41.61
2019-03-29T16:52:16.054Z,43.17
2019-03-29T16:54:45.217Z,41.94
2019-03-29T16:57:14.280Z,42.05
2019-03-29T16:59:43.800Z,41.77
2019-03-29T17:02:12.991Z,42.34
2019-03-29T17:04:42.258Z,42.92
2019-03-29T17:07:11.428Z,43.67
2019-03-29T17:09:40.483Z,43.83
2019-03-29T17:12:09.665Z,44.16
2019-03-29T17:14:38.741Z,44.81
2019-03-29T17:17:07.901Z,45.42
2019-03-29T17:19:37.035Z,45.54
2019-03-29T17:22:06.126Z,45.67
2019-03-29T17:24:35.177Z,46.37
2019-03-29T17:27:04.224Z,46.63
2019-03-29T17:29:33.302Z,46.75
2019-03-29T17:32:02.344Z,46.91
2019-03-29T17:34:31.504Z,47.35
2019-03-29T17:37:00.769Z,46.92
2019-03-29T17:39:29.915Z,47.69
2019-03-29T17:41:59.069Z,47.40
2019-03-29T17:44:28.137Z,48.36
2019-03-29T17:46:57.272Z,48.53
2019-03-29T17:49:26.331Z,48.63
2019-03-29T17:51:55.514Z,49.01
2019-03-29T17:54:24.559Z,49.03
2019-03-29T17:56:53.720Z,49.81
2019-03-29T17:59:22.812Z,50.27
2019-03-29T18:01:52.054Z,50.64
2019-03-29T18:04:21.110Z,50.56
2019-03-29T18:06:50.174Z,51.05
2019-03-29T18:09:19.216Z,51.24
2019-03-29T18:11:48.375Z,51.16
2019-03-29T18:14:17.485Z,52.05
2019-03-29T18:16:46.530Z,51.88
2019-03-29T18:19:15.715Z,52.30
2019-03-29T18:21:44.795Z,52.47
2019-03-29T18:24:13.859Z,52.75
2019-03-29T18:26:42.904Z,52.71
2019-03-29T18:29:12.084Z,53.48
2019-03-29T18:31:41.225Z,54.30
2019-03-29T18:34:10.307Z,54.43
2019-03-29T18:36:41.007Z,54.72
2019-03-29T18:39:10.170Z,54.63
2019-03-29T18:41:39.210Z,54.88
2019-03-29T18:44:08.295Z,55.25
2019-03-29T18:46:44.626Z,55.73
2019-03-29T18:49:08.419Z,55.57
2019-03-29T18:51:37.390Z,55.92
2019-03-29T18:54:06.448Z,56.35
2019-03-29T18:56:35.726Z,56.36
2019-03-29T18:59:04.772Z,56.78
2019-03-29T19:01:33.827Z,56.94
2019-03-29T19:04:03.133Z,57.72
2019-03-29T19:06:32.287Z,58.27
2019-03-29T19:09:01.430Z,58.35
2019-03-29T19:11:30.762Z,58.36
2019-03-29T19:13:59.916Z,58.52
2019-03-29T19:16:28.966Z,59.33
2019-03-29T19:19:09.494Z,59.60
2019-03-29T19:21:29.091Z,59.47
2019-03-29T19:23:58.149Z,59.25
2019-03-29T19:26:27.606Z,59.94
2019-03-29T19:28:56.667Z,60.89
2019-03-29T19:31:25.713Z,60.50
2019-03-29T19:33:54.778Z,60.90
2019-03-29T19:36:23.823Z,61.52
2019-03-29T19:38:52.884Z,62.06
2019-03-29T19:41:22.071Z,62.50
2019-03-29T19:43:51.116Z,62.48
2019-03-29T19:46:20.199Z,62.97
2019-03-29T19:48:49.723Z,63.27
2019-03-29T19:51:18.838Z,63.97
2019-03-29T19:53:47.936Z,64.00
2019-03-29T19:56:17.089Z,64.53
2019-03-29T19:58:46.105Z,64.67
2019-03-29T20:01:15.299Z,64.27
2019-03-29T20:03:44.599Z,64.54
2019-03-29T20:06:13.711Z,65.06
2019-03-29T20:08:42.765Z,65.54
2019-03-29T20:11:12.115Z,65.64
2019-03-29T20:13:41.273Z,65.69
2019-03-29T20:16:10.317Z,65.97
2019-03-29T20:18:39.399Z,65.83
2019-03-29T20:21:08.436Z,65.13
2019-03-29T20:23:37.578Z,65.88
2019-03-29T20:26:08.287Z,65.87
2019-03-29T20:28:39.039Z,66.23
2019-03-29T20:31:08.306Z,65.22
2019-03-29T20:33:37.494Z,65.86
2019-03-29T20:36:06.676Z,66.44
2019-03-29T20:38:35.930Z,65.59
2019-03-29T20:41:05.132Z,66.31
2019-03-29T20:43:34.175Z,66.89
2019-03-29T20:46:05.513Z,67.96
2019-03-29T20:48:35.087Z,66.50
2019-03-29T20:51:04.251Z,66.61
2019-03-29T20:53:33.294Z,67.34
2019-03-29T20:56:02.472Z,67.51
2019-03-29T20:58:31.507Z,66.97
2019-03-29T21:01:00.568Z,67.57
2019-03-29T21:03:29.635Z,67.80
2019-03-29T21:05:58.780Z,66.67
2019-03-29T21:08:27.919Z,66.14
2019-03-29T21:10:57.178Z,65.74
2019-03-29T21:13:26.273Z,65.57
2019-03-29T21:15:55.271Z,65.71
2019-03-29T21:18:24.336Z,65.07
2019-03-29T21:20:53.385Z,65.65
2019-03-29T21:23:22.599Z,67.62
2019-03-29T21:25:51.831Z,67.36
2019-03-29T21:28:20.854Z,67.91
2019-03-29T21:30:49.904Z,68.69
2019-03-29T21:33:19.033Z,69.98
2019-03-29T21:35:48.353Z,69.75
2019-03-29T21:38:17.746Z,70.59
2019-03-29T21:40:46.819Z,70.35
2019-03-29T21:43:16.057Z,71.22
2019-03-29T21:45:45.304Z,72.23
2019-03-29T21:48:28.182Z,73.15
2019-03-29T21:50:45.515Z,73.13
2019-03-29T21:53:14.672Z,72.20
2019-03-29T21:55:43.856Z,72.54
2019-03-29T21:58:13.018Z,73.04
2019-03-29T22:00:42.067Z,72.83
2019-03-29T22:03:11.230Z,73.37
2019-03-29T22:05:40.390Z,73.53
2019-03-29T22:08:09.530Z,73.15
2019-03-29T22:10:38.699Z,73.86
2019-03-29T22:13:07.840Z,74.22
2019-03-29T22:15:36.899Z,74.08
2019-03-29T22:18:06.990Z,74.78
2019-03-29T22:20:36.231Z,74.37
2019-03-29T22:23:05.372Z,75.03
2019-03-29T22:25:34.563Z,75.52
2019-03-29T22:28:03.701Z,76.10
2019-03-29T22:30:32.759Z,75.24
2019-03-29T22:33:03.938Z,76.27
2019-03-29T22:35:33.069Z,76.29
2019-03-29T22:38:02.200Z,75.99
2019-03-29T22:40:31.350Z,76.08
2019-03-29T22:43:00.422Z,76.72
2019-03-29T22:45:29.485Z,77.04
2019-03-29T22:47:58.743Z,77.19
2019-03-29T22:50:27.879Z,77.19
2019-03-29T22:52:57.021Z,77.23
2019-03-29T22:55:26.190Z,77.90
2019-03-29T22:57:55.322Z,78.21
2019-03-29T23:00:35.370Z,78.14
2019-03-29T23:03:05.706Z,78.18
2019-03-29T23:05:35.010Z,78.44
2019-03-29T23:08:04.567Z,78.39
2019-03-29T23:10:33.735Z,78.70
2019-03-29T23:13:02.950Z,78.97
2019-03-29T23:15:32.111Z,78.91
2019-03-29T23:18:01.178Z,78.41
2019-03-29T23:20:30.235Z,78.47
2019-03-29T23:22:59.417Z,78.89
2019-03-29T23:25:28.512Z,78.96
2019-03-29T23:27:57.655Z,78.75
2019-03-29T23:30:26.815Z,78.84
2019-03-29T23:32:56.096Z,78.84
2019-03-29T23:35:25.259Z,79.02
2019-03-29T23:37:54.411Z,79.60
2019-03-29T23:40:23.487Z,79.78
2019-03-29T23:42:52.623Z,78.81
2019-03-29T23:45:21.770Z,78.12
2019-03-29T23:47:50.813Z,78.03
2019-03-29T23:50:19.868Z,77.95
2019-03-29T23:52:48.907Z,79.22
2019-03-29T23:55:18.075Z,79.07
2019-03-29T23:57:47.222Z,78.73
